Time;durP1;ratioP1;P1;durP2;ratioP2;P2;SDS_P1;SDS_P2;PMS_P1;PMS_P2;Temp;Humidity;BMP_temperature;BMP_pressure;BME280_temperature;BME280_humidity;BME280_pressure;Samples;Min_cycle;Max_cycle;Signal;HPM_P1;HPM_P2
2021/07/22 00:00:00;;;;;;;4.45;2.60;;;17.90;99.90;;;15.53;100.00;101317.53;3510043;39;100918;-83
2021/07/22 00:02:27;;;;;;;4.65;2.67;;;18.70;99.90;;;15.58;100.00;101323.28;3508452;39;99974;-83
2021/07/22 00:04:54;;;;;;;4.57;2.72;;;17.70;99.90;;;15.55;100.00;101320.94;3507838;39;100893;-83
2021/07/22 00:07:23;;;;;;;4.15;2.58;;;17.70;99.90;;;15.44;100.00;101324.78;3497292;39;103179;-83
2021/07/22 00:09:50;;;;;;;3.92;2.83;;;17.60;99.90;;;15.36;100.00;101338.22;3498199;39;102524;-83
2021/07/22 00:12:17;;;;;;;3.85;2.80;;;17.60;99.90;;;15.37;100.00;101339.91;3508304;39;100141;-83
2021/07/22 00:14:45;;;;;;;3.58;2.72;;;17.50;99.90;;;15.38;100.00;101346.13;3514881;39;100391;-82
2021/07/22 00:17:12;;;;;;;4.28;2.47;;;18.40;99.90;;;15.33;100.00;101343.09;3498097;39;103317;-83
2021/07/22 00:19:39;;;;;;;6.55;2.83;;;17.40;99.90;;;15.31;100.00;101351.34;3517422;39;100414;-84
2021/07/22 00:22:06;;;;;;;2.67;1.92;;;17.40;99.90;;;15.33;100.00;101349.31;3519555;39;100095;-82
2021/07/22 00:24:36;;;;;;;2.60;2.20;;;17.40;99.90;;;15.34;100.00;101366.34;3510081;39;102834;-83
2021/07/22 00:27:04;;;;;;;5.05;2.13;;;17.30;99.90;;;15.34;100.00;101366.34;3517589;39;100916;-82
2021/07/22 00:29:34;;;;;;;2.58;2.30;;;17.30;99.90;;;15.32;100.00;101361.13;3498839;39;102966;-84
2021/07/22 00:32:01;;;;;;;2.75;2.03;;;18.30;99.90;;;15.32;100.00;101366.53;3505120;39;100467;-84
2021/07/22 00:34:28;;;;;;;4.05;2.30;;;18.00;99.90;;;15.33;100.00;101368.19;3511372;39;101288;-83
2021/07/22 00:36:55;;;;;;;3.22;2.30;;;17.20;99.90;;;15.32;100.00;101365.69;3498415;39;103163;-82
2021/07/22 00:39:23;;;;;;;4.93;2.42;;;17.20;99.90;;;15.27;100.00;101366.16;3499202;39;102463;-83
2021/07/22 00:41:54;;;;;;;3.88;3.17;;;17.20;99.90;;;15.27;100.00;101365.31;3509649;39;99936;-82
2021/07/22 00:44:21;;;;;;;6.45;2.90;;;17.20;99.90;;;15.23;100.00;101364.78;3498948;39;103264;-85
2021/07/22 00:46:48;;;;;;;5.97;3.28;;;17.20;99.90;;;15.17;100.00;101362.75;3511787;39;101157;-84
2021/07/22 00:49:16;;;;;;;5.07;2.85;;;17.60;99.90;;;15.24;100.00;101361.09;3511776;39;101254;-84
2021/07/22 00:51:44;;;;;;;6.30;3.08;;;17.10;99.90;;;15.19;100.00;101363.44;3509474;39;100103;-83
2021/07/22 00:54:11;;;;;;;4.95;2.83;;;17.60;99.90;;;15.18;100.00;101364.44;3505491;39;101882;-83
2021/07/22 00:56:40;;;;;;;5.80;3.03;;;17.10;99.90;;;15.17;100.00;101365.44;3510694;39;103541;-84
2021/07/22 00:59:09;;;;;;;4.72;2.47;;;17.10;99.90;;;15.19;100.00;101365.28;3515919;39;100619;-83
2021/07/22 01:01:38;;;;;;;4.68;3.13;;;17.90;99.90;;;15.15;100.00;101364.75;3499513;39;100043;-82
2021/07/22 01:04:06;;;;;;;3.97;2.50;;;17.10;99.90;;;15.18;100.00;101369.84;3499520;39;102616;-81
2021/07/22 01:06:33;;;;;;;4.13;2.85;;;17.00;99.90;;;15.19;100.00;101368.00;3508946;39;100768;-83
2021/07/22 01:09:04;;;;;;;3.15;2.63;;;17.10;99.90;;;15.19;100.00;101365.28;3500395;39;101643;-84
2021/07/22 01:11:34;;;;;;;4.93;3.00;;;17.10;99.90;;;15.13;100.00;101364.06;3500164;39;99987;-82
2021/07/22 01:14:01;;;;;;;3.22;2.40;;;17.10;99.90;;;15.15;100.00;101362.06;3503838;39;101357;-83
2021/07/22 01:16:30;;;;;;;3.28;2.60;;;17.10;99.90;;;15.17;100.00;101362.75;3507877;39;103396;-83
2021/07/22 01:18:58;;;;;;;3.65;2.65;;;17.10;99.90;;;15.14;100.00;101367.63;3508687;39;102256;-83
2021/07/22 01:21:26;;;;;;;3.03;2.30;;;17.10;99.90;;;15.17;100.00;101365.44;3508337;39;100173;-82
2021/07/22 01:23:55;;;;;;;5.65;2.70;;;17.10;99.90;;;15.14;100.00;101363.06;3509057;39;102730;-82
2021/07/22 01:26:34;;;;;;;2.92;2.65;;;17.10;99.90;;;15.20;100.00;101362.44;3517831;39;100605;-83
2021/07/22 01:29:14;;;;;;;6.72;2.13;;;17.60;99.90;;;15.20;100.00;101362.44;3509298;39;102812;-81
2021/07/22 01:31:42;;;;;;;4.85;2.53;;;17.10;99.90;;;15.22;100.00;101364.94;3518533;39;100138;-83
2021/07/22 01:34:09;;;;;;;4.00;2.13;;;17.10;99.90;;;15.16;100.00;101357.53;3507301;39;102698;-82
2021/07/22 01:36:38;;;;;;;6.30;2.88;;;17.10;99.90;;;15.13;100.00;101356.00;3516397;39;102540;-83
2021/07/22 01:39:05;;;;;;;5.28;2.45;;;17.10;99.90;;;15.12;100.00;101362.38;3506147;39;102171;-81
2021/07/22 01:41:33;;;;;;;3.58;2.35;;;17.30;99.90;;;15.19;100.00;101359.91;3510794;39;100391;-83
2021/07/22 01:44:01;;;;;;;2.58;2.15;;;17.10;99.90;;;15.18;100.00;101359.06;3518116;39;101463;-82
2021/07/22 01:46:28;;;;;;;5.45;2.40;;;17.10;99.90;;;15.23;100.00;101350.47;3509377;39;103060;-83
2021/07/22 01:48:57;;;;;;;4.30;2.50;;;17.10;99.90;;;15.19;100.00;101349.13;3509700;39;102485;-82
2021/07/22 01:51:25;;;;;;;3.20;2.72;;;17.50;99.90;;;15.14;100.00;101351.44;3509626;39;100208;-83
2021/07/22 01:54:00;;;;;;;5.95;3.50;;;18.10;99.90;;;15.09;100.00;101344.66;3507728;39;102914;-82
2021/07/22 01:56:28;;;;;;;4.40;2.97;;;17.50;99.90;;;15.15;100.00;101353.13;3508620;39;102045;-81
2021/07/22 01:58:55;;;;;;;3.65;2.70;;;17.10;99.90;;;15.16;100.00;101361.06;3508320;39;103134;-83
2021/07/22 02:01:24;;;;;;;3.53;2.85;;;17.10;99.90;;;15.10;100.00;101359.00;3508912;39;100201;-82
2021/07/22 02:03:58;;;;;;;4.82;2.85;;;17.10;99.90;;;15.10;100.00;101365.25;3508706;39;101300;-83
2021/07/22 02:06:25;;;;;;;4.35;2.75;;;17.00;99.90;;;15.16;100.00;101361.06;3519138;39;101267;-82
2021/07/22 02:08:55;;;;;;;3.92;2.78;;;17.00;99.90;;;15.15;100.00;101363.91;3507451;39;100176;-82
2021/07/22 02:11:24;;;;;;;8.45;3.33;;;18.00;99.90;;;15.14;100.00;101371.16;3509176;39;100309;-83
2021/07/22 02:13:52;;;;;;;4.45;2.22;;;16.50;99.90;;;15.09;100.00;101374.31;3508198;39;102702;-83
2021/07/22 02:16:20;;;;;;;3.28;2.65;;;17.10;99.90;;;15.19;100.00;101368.00;3508888;39;103067;-84
2021/07/22 02:18:47;;;;;;;4.43;2.63;;;17.10;99.90;;;15.10;100.00;101369.78;3519580;39;100496;-82
2021/07/22 02:21:21;;;;;;;3.55;2.28;;;17.10;99.90;;;15.03;100.00;101374.13;3509822;39;100118;-82
2021/07/22 02:23:51;;;;;;;3.53;2.55;;;17.00;99.90;;;15.13;100.00;101377.56;3525354;39;102667;-83
2021/07/22 02:26:25;;;;;;;3.60;2.53;;;17.10;99.90;;;15.13;100.00;101380.25;3522218;39;101392;-81
2021/07/22 02:28:53;;;;;;;3.65;2.22;;;17.10;99.90;;;15.14;100.00;101383.78;3507843;39;102382;-82
2021/07/22 02:31:21;;;;;;;5.63;3.25;;;17.10;99.90;;;15.19;100.00;101386.88;3518622;39;100255;-82
2021/07/22 02:33:48;;;;;;;10.23;3.60;;;18.10;99.90;;;15.16;100.00;101385.31;3499543;39;102193;-83
2021/07/22 02:36:15;;;;;;;4.28;2.75;;;17.10;99.90;;;15.10;100.00;101394.88;3499508;39;103033;-84
2021/07/22 02:39:07;;;;;;;4.80;2.70;;;17.10;99.90;;;15.01;100.00;101398.56;3507073;39;101933;-82
2021/07/22 02:41:35;;;;;;;3.53;2.83;;;17.10;99.90;;;15.14;100.00;101400.81;3497515;39;100641;-83
2021/07/22 02:44:05;;;;;;;4.53;2.13;;;17.10;99.90;;;15.15;100.00;101404.34;3500079;39;103085;-83
2021/07/22 02:46:37;;;;;;;4.45;2.85;;;17.10;99.90;;;15.10;100.00;101405.66;3499696;39;103572;-82
2021/07/22 02:49:04;;;;;;;4.28;2.72;;;17.10;99.90;;;15.11;100.00;101395.72;3508904;39;101920;-82
2021/07/22 02:51:35;;;;;;;3.03;2.05;;;17.10;99.90;;;15.15;100.00;101393.56;3509165;39;100047;-81
2021/07/22 02:54:08;;;;;;;5.10;2.80;;;17.10;99.90;;;15.14;100.00;101383.78;3508317;39;103498;-83
2021/07/22 02:56:37;;;;;;;5.35;2.33;;;17.10;99.90;;;15.26;100.00;101380.66;3520170;39;101347;-82
2021/07/22 02:59:14;;;;;;;3.33;2.28;;;17.10;99.90;;;15.16;100.00;101381.78;3506687;39;103495;-83
2021/07/22 03:01:42;;;;;;;2.30;2.10;;;17.90;99.90;;;15.03;100.00;101374.13;3512822;39;99906;-83
2021/07/22 03:04:16;;;;;;;6.13;3.25;;;17.10;99.90;;;15.01;100.00;101382.38;3514034;39;102086;-83
2021/07/22 03:06:51;;;;;;;3.28;2.53;;;17.30;99.90;;;15.07;100.00;101391.69;3508254;39;102713;-82
2021/07/22 03:09:19;;;;;;;9.43;3.15;;;17.00;99.90;;;15.10;100.00;101392.19;3518516;39;101040;-83
2021/07/22 03:11:50;;;;;;;4.63;2.03;;;17.10;99.90;;;15.17;100.00;101397.81;3507951;39;100220;-83
2021/07/22 03:14:19;;;;;;;4.65;3.03;;;17.10;99.90;;;15.16;100.00;101392.56;3509280;39;103138;-82
2021/07/22 03:16:46;;;;;;;4.90;2.85;;;17.10;99.90;;;15.27;100.00;101390.44;3517780;39;101099;-82
2021/07/22 03:19:13;;;;;;;2.92;2.17;;;17.10;99.90;;;15.20;100.00;101394.78;3520036;39;100454;-83
2021/07/22 03:21:52;;;;;;;3.45;2.38;;;17.10;99.90;;;15.16;100.00;101389.88;3509264;39;100266;-81
2021/07/22 03:24:39;;;;;;;6.82;3.20;;;17.10;99.90;;;15.09;100.00;101389.66;3508591;39;101040;-82
2021/07/22 03:27:15;;;;;;;4.28;2.72;;;17.10;99.90;;;15.02;100.00;101397.56;3508250;39;103497;-81
2021/07/22 03:29:44;;;;;;;6.25;2.75;;;17.10;99.90;;;15.03;100.00;101412.72;3510399;39;101903;-82
2021/07/22 03:32:13;;;;;;;4.45;2.55;;;17.10;99.90;;;15.03;100.00;101417.25;3509142;39;100316;-84
2021/07/22 03:34:40;;;;;;;7.35;3.20;;;17.10;99.90;;;15.03;100.00;101425.34;3517590;39;103315;-83
2021/07/22 03:37:16;;;;;;;9.52;3.03;;;17.10;99.90;;;15.01;100.00;101432.75;3507659;39;102779;-82
2021/07/22 03:39:44;;;;;;;2.40;2.20;;;17.10;99.90;;;14.97;100.00;101431.38;3499024;39;103079;-84
2021/07/22 03:42:11;;;;;;;6.40;3.30;;;17.00;99.90;;;15.00;100.00;101436.44;3507697;39;100034;-83
2021/07/22 03:45:02;;;;;;;4.10;2.65;;;17.10;99.90;;;15.10;100.00;101453.34;3498070;39;101685;-83
2021/07/22 03:47:30;;;;;;;4.18;2.72;;;17.00;99.90;;;14.96;100.00;101445.88;3502746;39;101776;-82
2021/07/22 03:49:58;;;;;;;5.10;2.47;;;17.10;99.90;;;14.98;100.00;101455.47;3518137;39;100749;-82
2021/07/22 03:52:39;;;;;;;4.85;2.72;;;17.00;99.90;;;15.05;100.00;101455.69;3506871;39;100289;-83
2021/07/22 03:55:07;;;;;;;3.58;2.80;;;17.00;99.90;;;14.95;100.00;101455.81;3508511;39;103315;-82
2021/07/22 03:57:49;;;;;;;4.65;2.75;;;17.00;99.90;;;15.02;100.00;101464.09;3505934;39;101924;-83
2021/07/22 04:00:18;;;;;;;7.05;2.70;;;17.10;99.90;;;15.03;100.00;101480.09;3517201;39;102094;-83
2021/07/22 04:03:01;;;;;;;5.75;2.90;;;17.00;99.90;;;14.97;100.00;101474.47;3516396;39;100104;-83
2021/07/22 04:05:30;;;;;;;8.30;3.17;;;17.00;99.90;;;15.01;100.00;101479.41;3515311;39;102576;-81
2021/07/22 04:07:58;;;;;;;5.45;2.85;;;17.00;99.90;;;15.00;100.00;101483.09;3512619;39;101486;-83
2021/07/22 04:10:44;;;;;;;6.47;3.45;;;17.00;99.90;;;14.99;100.00;101511.06;3508445;40;100037;-83
2021/07/22 04:13:31;;;;;;;5.13;2.65;;;17.00;99.90;;;15.03;100.00;101522.38;3500828;40;100321;-81
2021/07/22 04:16:22;;;;;;;3.30;2.40;;;17.00;99.90;;;14.94;100.00;101529.56;3496244;40;102010;-82
2021/07/22 04:19:05;;;;;;;4.43;2.47;;;18.00;99.90;;;15.01;100.00;101545.94;3496728;40;103590;-83
2021/07/22 04:21:58;;;;;;;3.97;2.58;;;16.90;99.90;;;14.99;100.00;101554.19;3506522;40;101085;-83
2021/07/22 04:24:40;;;;;;;5.35;2.90;;;17.00;99.90;;;15.05;100.00;101558.97;3497450;40;100264;-82
2021/07/22 04:27:12;;;;;;;4.38;3.00;;;17.00;99.90;;;14.97;100.00;101558.03;3514972;39;101300;-83
2021/07/22 04:29:50;;;;;;;6.93;3.17;;;17.00;99.90;;;15.00;100.00;101576.59;3527694;39;99995;-83
2021/07/22 04:32:19;;;;;;;4.28;2.38;;;17.00;99.90;;;15.03;100.00;101587.06;3504262;40;101882;-82
2021/07/22 04:35:08;;;;;;;4.15;3.10;;;17.10;99.90;;;14.99;100.00;101597.31;3507306;40;100122;-83
2021/07/22 04:37:55;;;;;;;4.63;2.40;;;17.00;99.90;;;15.07;100.00;101608.19;3507716;40;101147;-83
2021/07/22 04:40:32;;;;;;;4.60;2.97;;;17.00;99.90;;;15.22;100.00;101608.44;3506222;40;102983;-82
2021/07/22 04:43:19;;;;;;;3.17;2.72;;;18.00;99.90;;;15.22;100.00;101588.72;3557467;39;100030;-82
2021/07/22 04:46:07;;;;;;;6.50;3.38;;;17.10;99.90;;;15.18;100.00;101576.59;3527072;39;100181;-81
2021/07/22 04:49:01;;;;;;;6.20;3.45;;;18.00;99.90;;;15.28;100.00;101567.41;3527957;39;101391;-83
2021/07/22 04:51:38;;;;;;;5.03;2.97;;;17.20;99.90;;;15.36;100.00;101563.91;3533163;39;103261;-81
2021/07/22 04:54:19;;;;;;;4.07;2.90;;;17.10;99.90;;;15.41;100.00;101558.88;3534206;39;102731;-83
2021/07/22 04:56:47;;;;;;;6.20;3.60;;;17.20;99.90;;;15.38;100.00;101553.81;3516992;39;100237;-83
2021/07/22 04:59:17;;;;;;;3.80;2.92;;;17.30;99.90;;;15.41;100.00;101545.41;3526424;39;101382;-81
2021/07/22 05:01:45;;;;;;;4.25;3.13;;;17.30;99.90;;;15.50;100.00;101539.03;3524228;39;103517;-82
2021/07/22 05:04:17;;;;;;;4.70;3.13;;;17.60;99.90;;;15.46;100.00;101535.81;3524699;39;101097;-81
2021/07/22 05:06:49;;;;;;;4.03;2.70;;;16.60;99.90;;;15.40;100.00;101522.97;3520528;39;100184;-82
2021/07/22 05:09:45;;;;;;;5.15;2.95;;;17.30;99.90;;;15.49;100.00;101521.16;3529367;39;100043;-82
2021/07/22 05:12:32;;;;;;;4.95;3.28;;;17.40;99.90;;;15.51;100.00;101510.22;3534670;39;102945;-81
2021/07/22 05:15:09;;;;;;;4.00;2.78;;;17.40;99.90;;;15.53;100.00;101508.22;3538284;39;100989;-83
2021/07/22 05:17:55;;;;;;;7.60;3.60;;;17.50;99.90;;;15.52;100.00;101509.22;3538135;39;100281;-83
2021/07/22 05:20:42;;;;;;;5.20;2.67;;;17.50;99.90;;;15.49;100.00;101510.38;3539564;39;100239;-83
2021/07/22 05:23:37;;;;;;;3.88;2.53;;;17.40;99.90;;;15.52;100.00;101510.06;3535618;39;103437;-83
2021/07/22 05:26:15;;;;;;;5.35;3.50;;;17.50;99.90;;;15.60;100.00;101520.06;3545683;39;102567;-82
2021/07/22 05:28:56;;;;;;;3.80;2.90;;;17.40;99.90;;;15.69;100.00;101517.28;3518038;39;100301;-84
2021/07/22 05:31:47;;;;;;;3.67;2.40;;;17.50;99.90;;;15.80;100.00;101508.88;3517999;39;103278;-82
2021/07/22 05:34:37;;;;;;;3.80;2.53;;;17.50;99.90;;;15.98;100.00;101495.28;3513169;39;100913;-82
2021/07/22 05:37:13;;;;;;;3.40;2.53;;;18.50;99.90;;;16.07;100.00;101469.16;3527888;39;100706;-84
2021/07/22 05:39:48;;;;;;;4.70;3.05;;;17.60;99.90;;;15.94;100.00;101442.63;3527187;39;100115;-84
2021/07/22 05:42:15;;;;;;;5.35;3.05;;;17.70;99.90;;;15.97;100.00;101417.16;3527456;39;100864;-82
2021/07/22 05:44:43;;;;;;;4.90;3.08;;;17.70;99.90;;;16.03;100.00;101398.44;3525391;39;100994;-83
2021/07/22 05:47:11;;;;;;;7.22;3.60;;;17.80;99.90;;;16.09;100.00;101394.22;3530676;39;100616;-82
2021/07/22 05:49:38;;;;;;;4.10;2.80;;;17.90;99.90;;;16.11;100.00;101370.59;3537642;39;100297;-85
2021/07/22 05:52:07;;;;;;;7.53;3.38;;;18.00;99.90;;;16.07;100.00;101369.28;3537806;39;100319;-83
2021/07/22 05:54:33;;;;;;;5.95;3.10;;;18.70;99.90;;;16.17;100.00;101365.38;3526839;39;101482;-83
2021/07/22 05:57:02;;;;;;;5.43;3.90;;;18.20;99.90;;;16.11;100.00;101362.50;3527559;39;102801;-83
2021/07/22 05:59:29;;;;;;;4.32;2.92;;;18.00;99.90;;;16.16;100.00;101365.56;3525108;39;99986;-83
2021/07/22 06:01:56;;;;;;;11.27;2.70;;;18.10;99.90;;;16.17;100.00;101368.09;3533463;39;102879;-82
2021/07/22 06:04:24;;;;;;;5.40;2.65;;;19.10;99.90;;;16.22;100.00;101362.16;3527638;39;101047;-83
2021/07/22 06:06:51;;;;;;;4.65;3.13;;;19.00;99.90;;;16.21;100.00;101356.94;3525402;39;100655;-82
2021/07/22 06:09:18;;;;;;;6.50;2.95;;;19.00;99.90;;;16.06;100.00;101351.38;3529868;39;100347;-84
2021/07/22 06:11:45;;;;;;;5.53;3.00;;;18.20;99.90;;;16.17;100.00;101360.00;3532132;39;100515;-83
2021/07/22 06:14:12;;;;;;;4.05;2.45;;;18.00;99.90;;;16.21;100.00;101354.22;3529410;39;101388;-82
2021/07/22 06:16:39;;;;;;;5.40;2.88;;;18.20;99.90;;;16.19;100.00;101358.97;3529106;39;100342;-82
2021/07/22 06:19:06;;;;;;;4.10;2.55;;;18.20;99.90;;;16.29;100.00;101363.19;3525306;39;100559;-83
2021/07/22 06:21:34;;;;;;;5.45;3.08;;;18.30;99.90;;;16.32;100.00;101359.31;3518046;39;101227;-83
2021/07/22 06:24:01;;;;;;;3.75;2.45;;;18.20;99.90;;;16.35;100.00;101361.66;3530412;39;101491;-83
2021/07/22 06:26:28;;;;;;;4.15;2.35;;;18.30;99.90;;;16.43;100.00;101356.25;3528794;39;100607;-84
2021/07/22 06:28:55;;;;;;;3.53;2.75;;;18.30;99.90;;;16.45;100.00;101352.34;3519879;39;100070;-83
2021/07/22 06:31:22;;;;;;;3.88;2.42;;;18.40;99.90;;;16.72;100.00;101358.44;3526311;39;102971;-84
2021/07/22 06:33:49;;;;;;;3.58;2.65;;;18.50;99.90;;;16.64;100.00;101351.19;3526748;39;103179;-83
2021/07/22 06:36:16;;;;;;;4.95;3.35;;;19.40;99.90;;;16.73;100.00;101352.84;3526359;39;101855;-83
2021/07/22 06:38:44;;;;;;;3.10;2.67;;;18.50;99.90;;;16.86;100.00;101341.50;3522539;39;100152;-83
2021/07/22 06:41:11;;;;;;;3.17;2.70;;;18.60;99.90;;;17.03;100.00;101332.34;3522101;39;103455;-84
2021/07/22 06:43:39;;;;;;;5.63;3.03;;;19.70;99.90;;;17.04;100.00;101316.97;3554636;39;101769;-84
2021/07/22 06:46:11;;;;;;;4.28;2.50;;;18.70;99.90;;;17.07;100.00;101294.94;3537091;39;101578;-84
2021/07/22 06:48:38;;;;;;;4.53;2.80;;;18.90;99.90;;;17.13;100.00;101268.06;3510233;39;100183;-82
2021/07/22 06:51:08;;;;;;;5.13;3.35;;;18.90;99.90;;;17.20;100.00;101243.84;3521225;39;101014;-84
2021/07/22 06:53:35;;;;;;;4.70;2.67;;;18.80;99.90;;;17.24;100.00;101221.69;3517616;39;103417;-83
2021/07/22 06:56:05;;;;;;;4.50;2.90;;;19.00;99.90;;;17.37;100.00;101214.84;3519766;39;100245;-82
2021/07/22 06:58:32;;;;;;;4.72;3.15;;;19.10;99.90;;;17.38;100.00;101198.44;3521295;39;99947;-83
2021/07/22 07:00:59;;;;;;;4.15;2.92;;;19.20;99.90;;;17.46;100.00;101181.28;3519030;39;101056;-83
2021/07/22 07:03:26;;;;;;;2.90;2.42;;;19.30;99.90;;;17.60;100.00;101178.63;3520594;39;101446;-83
2021/07/22 07:05:53;;;;;;;3.58;2.83;;;19.20;99.90;;;17.76;100.00;101166.84;3520082;39;100717;-84
2021/07/22 07:08:21;;;;;;;9.48;3.05;;;19.40;99.90;;;17.86;100.00;101167.44;3520896;39;100096;-83
2021/07/22 07:10:48;;;;;;;4.65;2.53;;;19.50;99.90;;;17.91;100.00;101147.94;3517838;39;102874;-82
2021/07/22 07:13:16;;;;;;;2.45;2.20;;;19.70;99.90;;;17.93;100.00;101133.16;3519926;39;100902;-85
2021/07/22 07:15:43;;;;;;;3.63;2.83;;;19.80;99.90;;;17.95;100.00;101119.44;3519694;39;100114;-83
2021/07/22 07:18:10;;;;;;;3.38;2.72;;;20.50;99.90;;;17.96;100.00;101113.00;3518198;39;100122;-83
2021/07/22 07:20:37;;;;;;;8.23;3.05;;;20.60;99.90;;;18.09;100.00;101110.47;3519186;39;100807;-84
2021/07/22 07:23:04;;;;;;;4.45;3.00;;;20.20;99.90;;;18.08;100.00;101097.13;3530933;39;99878;-83
2021/07/22 07:25:33;;;;;;;3.70;2.65;;;20.10;99.90;;;18.06;100.00;101099.16;3519023;39;100107;-83
2021/07/22 07:28:00;;;;;;;4.45;2.70;;;21.10;99.90;;;18.04;100.00;101082.31;3522238;39;100195;-84
2021/07/22 07:30:29;;;;;;;4.80;2.47;;;20.50;99.90;;;18.26;100.00;101081.34;3528601;39;101028;-84
2021/07/22 07:32:56;;;;;;;4.03;2.90;;;20.30;99.90;;;18.21;100.00;101071.06;3527821;39;101215;-84
2021/07/22 07:35:25;;;;;;;4.93;2.47;;;20.40;99.90;;;18.29;100.00;101070.13;3527695;39;100404;-83
2021/07/22 07:37:52;;;;;;;2.63;1.77;;;20.50;99.90;;;18.60;100.00;101067.19;3529637;39;100113;-85
2021/07/22 07:40:20;;;;;;;6.93;3.03;;;20.60;99.90;;;18.64;100.00;101065.78;3528457;39;100978;-84
2021/07/22 07:42:47;;;;;;;3.60;2.53;;;20.70;99.90;;;18.43;100.00;101057.56;3526962;39;101321;-83
2021/07/22 07:45:14;;;;;;;2.90;2.60;;;21.80;99.90;;;18.73;100.00;101045.63;3518410;39;101461;-84
2021/07/22 07:47:42;;;;;;;5.15;2.80;;;20.00;99.90;;;18.80;100.00;101042.97;3523012;39;100091;-83
2021/07/22 07:50:10;;;;;;;3.55;2.47;;;21.00;99.90;;;18.92;100.00;101038.72;3518068;39;100826;-83
2021/07/22 07:52:39;;;;;;;4.35;2.78;;;21.20;99.90;;;18.83;100.00;101037.19;3519173;39;101460;-83
2021/07/22 07:55:08;;;;;;;3.03;2.60;;;21.30;99.90;;;19.09;100.00;101040.13;3519713;39;100380;-83
2021/07/22 07:57:35;;;;;;;3.95;2.88;;;21.30;99.90;;;19.14;100.00;101034.13;3517585;39;100234;-83
2021/07/22 08:00:03;;;;;;;3.78;2.53;;;21.50;99.90;;;19.23;100.00;101036.50;3524129;39;102743;-84
2021/07/22 08:02:39;;;;;;;4.47;3.08;;;21.60;99.90;;;19.42;100.00;101031.41;3517531;39;101440;-84
2021/07/22 08:05:10;;;;;;;5.95;2.88;;;21.70;99.90;;;19.40;100.00;101025.38;3507398;39;102085;-84
2021/07/22 08:07:37;;;;;;;5.00;3.08;;;21.80;99.90;;;19.34;100.00;101013.41;3522167;39;100166;-84
2021/07/22 08:10:04;;;;;;;4.03;2.83;;;21.90;99.90;;;19.38;100.00;101018.25;3522031;39;102215;-84
2021/07/22 08:12:32;;;;;;;3.17;2.33;;;22.00;99.90;;;19.70;100.00;101011.38;3546705;39;99838;-83
2021/07/22 08:14:59;;;;;;;3.42;2.45;;;22.20;99.90;;;19.54;100.00;101014.41;3520209;39;100714;-84
2021/07/22 08:17:27;;;;;;;8.18;3.20;;;22.30;99.90;;;19.60;100.00;101001.94;3519007;39;100276;-84
2021/07/22 08:20:00;;;;;;;3.55;2.42;;;22.40;99.90;;;19.59;100.00;101001.09;3516565;39;101617;-84
2021/07/22 08:22:28;;;;;;;3.05;2.75;;;22.20;99.90;;;19.58;100.00;101010.28;3508123;39;103243;-84
2021/07/22 08:24:55;;;;;;;7.18;2.70;;;22.40;99.90;;;19.62;100.00;101008.00;3518471;39;100594;-84
2021/07/22 08:27:26;;;;;;;3.38;2.22;;;22.40;99.90;;;19.83;100.00;101001.63;3524916;39;100233;-83
2021/07/22 08:29:53;;;;;;;5.03;2.40;;;22.80;99.90;;;19.88;100.00;100991.88;3522907;39;102461;-85
2021/07/22 08:32:21;;;;;;;3.90;2.95;;;22.40;99.90;;;20.26;100.00;100994.94;3530842;39;101375;-82
2021/07/22 08:34:48;;;;;;;4.32;2.35;;;23.00;99.90;;;19.94;100.00;100992.91;3528947;39;100367;-84
2021/07/22 08:37:16;;;;;;;3.40;2.60;;;23.20;99.90;;;20.33;100.00;100981.34;3537172;39;100292;-84
2021/07/22 08:39:46;;;;;;;2.97;2.20;;;23.40;99.60;;;20.14;100.00;100977.56;3519219;39;102908;-83
2021/07/22 08:42:14;;;;;;;8.98;2.72;;;23.40;98.80;;;20.11;100.00;100972.53;3523057;39;101400;-84
2021/07/22 08:44:43;;;;;;;3.38;2.53;;;23.50;98.10;;;19.85;100.00;100972.41;3524012;39;102670;-83
2021/07/22 08:47:12;;;;;;;5.65;2.72;;;23.70;96.90;;;20.03;100.00;100970.78;3513219;39;100289;-83
2021/07/22 08:49:40;;;;;;;5.53;2.80;;;23.60;95.90;;;20.06;100.00;100977.72;3533462;39;100948;-85
2021/07/22 08:52:10;;;;;;;4.10;2.70;;;23.70;95.10;;;20.14;100.00;100977.56;3542505;39;102375;-83
2021/07/22 08:54:37;;;;;;;4.40;2.65;;;23.70;94.60;;;20.38;100.00;100981.63;3519086;39;100457;-84
2021/07/22 08:57:09;;;;;;;6.32;3.05;;;23.70;94.20;;;20.42;100.00;100978.28;3521218;39;100352;-83
2021/07/22 08:59:40;;;;;;;4.15;2.75;;;23.60;94.00;;;20.61;100.00;100971.22;3516899;39;103278;-85
2021/07/22 09:02:16;;;;;;;5.45;3.47;;;23.90;94.00;;;20.19;100.00;100971.50;3519736;39;101476;-82
2021/07/22 09:04:51;;;;;;;8.30;2.40;;;24.80;93.70;;;20.43;100.00;100963.63;3519958;39;100712;-82
2021/07/22 09:07:19;;;;;;;6.50;3.13;;;24.10;93.10;;;20.81;100.00;100960.34;3531087;39;100067;-83
2021/07/22 09:10:18;;;;;;;5.70;3.22;;;24.10;92.30;;;21.31;100.00;100961.59;3527663;39;102936;-82
2021/07/22 09:12:48;;;;;;;3.47;2.60;;;24.40;92.20;;;20.95;100.00;100953.84;3530149;39;101131;-85
2021/07/22 09:15:26;;;;;;;4.47;2.60;;;24.50;91.70;;;21.05;100.00;100956.97;3527739;39;100453;-83
2021/07/22 09:17:54;;;;;;;4.18;2.67;;;24.70;91.20;;;20.70;100.00;100956.34;3527432;39;99904;-83
2021/07/22 09:20:32;;;;;;;6.70;3.10;;;25.70;91.00;;;21.62;100.00;100965.50;3525659;39;100653;-82
2021/07/22 09:23:00;;;;;;;3.40;2.80;;;25.00;90.40;;;21.67;100.00;100958.34;3518923;39;102836;-82
2021/07/22 09:25:42;;;;;;;4.30;2.60;;;25.40;90.20;;;21.39;100.00;100946.91;3520968;39;100667;-84
2021/07/22 09:28:14;;;;;;;4.82;2.75;;;25.30;88.70;;;21.25;100.00;100959.72;3521522;39;101105;-84
2021/07/22 09:30:56;;;;;;;3.72;2.67;;;25.40;84.30;;;21.23;100.00;100953.66;3518083;39;103354;-83
2021/07/22 09:33:41;;;;;;;4.28;3.03;;;25.40;83.60;;;21.24;100.00;100952.63;3528020;39;101067;-83
2021/07/22 09:36:31;;;;;;;4.13;3.05;;;25.50;83.30;;;21.47;100.00;100941.25;3518555;39;100439;-83
2021/07/22 09:39:25;;;;;;;5.50;3.78;;;25.60;81.50;;;21.49;100.00;100944.59;3515089;39;100375;-82
2021/07/22 09:42:01;;;;;;;3.10;2.50;;;25.70;79.10;;;21.44;100.00;100947.97;3519181;39;100944;-82
2021/07/22 09:44:35;;;;;;;3.28;2.63;;;26.60;78.80;;;21.41;100.00;100942.94;3526587;39;101286;-82
2021/07/22 09:47:06;;;;;;;3.03;2.38;;;26.00;76.00;;;21.87;100.00;100936.50;3528083;39;100668;-83
2021/07/22 09:49:39;;;;;;;4.22;2.15;;;25.90;76.00;;;22.08;100.00;100943.56;3526503;39;99991;-83
2021/07/22 09:52:23;;;;;;;3.63;2.08;;;26.10;76.40;;;22.74;100.00;100932.22;3523655;39;100312;-82
2021/07/22 09:54:50;;;;;;;2.75;2.28;;;26.30;76.10;;;21.71;100.00;100928.81;3518359;39;100959;-83
2021/07/22 09:57:20;;;;;;;3.33;2.45;;;27.40;75.20;;;22.19;100.00;100935.53;3519444;39;100824;-82
2021/07/22 09:59:50;;;;;;;5.90;2.47;;;26.80;73.30;;;22.42;100.00;100931.41;3526728;39;100341;-83
2021/07/22 10:02:21;;;;;;;5.70;3.35;;;27.10;72.00;;;21.77;100.00;100923.31;3527744;39;101111;-84
2021/07/22 10:04:52;;;;;;;3.60;2.05;;;27.90;71.10;;;22.86;100.00;100920.41;3528027;39;100499;-83
2021/07/22 10:07:22;;;;;;;3.90;2.22;;;27.50;69.70;;;22.93;100.00;100920.31;3528386;39;100197;-82
2021/07/22 10:09:53;;;;;;;4.47;2.65;;;28.10;69.50;;;23.79;100.00;100920.25;3528743;39;100081;-82
2021/07/22 10:12:22;;;;;;;4.03;2.63;;;28.10;69.30;;;22.32;100.00;100922.88;3552167;39;102774;-83
2021/07/22 10:14:56;;;;;;;4.38;3.03;;;27.90;67.30;;;23.05;100.00;100917.69;3525292;39;100954;-83
2021/07/22 10:17:27;;;;;;;3.58;2.30;;;28.20;66.80;;;23.33;100.00;100915.31;3527807;39;102556;-81